createdAt,value
2018-04-01T00:00:00.413Z,997.13
2018-04-01T00:01:00.362Z,997.15
2018-04-01T00:02:00.621Z,997.14
2018-04-01T00:03:00.279Z,997.14
2018-04-01T00:04:00.230Z,997.16
2018-04-01T00:05:00.187Z,997.14
2018-04-01T00:06:00.138Z,997.16
2018-04-01T00:07:00.144Z,997.13
2018-04-01T00:08:00.042Z,997.16
2018-04-01T00:09:00.300Z,997.21
2018-04-01T00:09:59.955Z,997.16
2018-04-01T00:10:59.892Z,997.19
2018-04-01T00:11:59.843Z,997.17
2018-04-01T00:12:59.850Z,997.19
2018-04-01T00:13:59.752Z,997.19
2018-04-01T00:14:59.706Z,997.17
2018-04-01T00:15:59.962Z,997.16
2018-04-01T00:16:59.624Z,997.15
2018-04-01T00:17:59.563Z,997.18
2018-04-01T00:18:59.533Z,997.19
2018-04-01T00:19:59.482Z,997.21
2018-04-01T00:20:59.430Z,997.18
2018-04-01T00:21:59.389Z,997.18
2018-04-01T00:22:59.637Z,997.14
2018-04-01T00:23:59.341Z,997.14
2018-04-01T00:24:59.244Z,997.16
2018-04-01T00:25:59.197Z,997.10
2018-04-01T00:26:59.150Z,997.15
2018-04-01T00:27:59.103Z,997.16
2018-04-01T00:28:59.053Z,997.18
2018-04-01T00:29:59.313Z,997.15
2018-04-01T00:30:58.966Z,997.19
2018-04-01T00:31:58.914Z,997.16
2018-04-01T00:32:58.864Z,997.17
2018-04-01T00:33:58.820Z,997.19
2018-04-01T00:34:58.765Z,997.17
2018-04-01T00:35:59.063Z,997.17
2018-04-01T00:36:58.667Z,997.17
2018-04-01T00:37:58.620Z,997.15
2018-04-01T00:38:58.575Z,997.14
2018-04-01T00:39:58.527Z,997.09
2018-04-01T00:40:58.477Z,997.06
2018-04-01T00:41:58.733Z,997.08
2018-04-01T00:42:58.394Z,997.05
2018-04-01T00:43:58.348Z,997.02
2018-04-01T00:44:58.300Z,997.00
2018-04-01T00:45:58.256Z,997.03
2018-04-01T00:46:58.261Z,997.05
2018-04-01T00:47:58.467Z,997.08
2018-04-01T00:48:58.112Z,997.09
2018-04-01T00:49:58.067Z,997.11
2018-04-01T00:50:58.016Z,997.06
2018-04-01T00:51:57.960Z,997.05
2018-04-01T00:52:57.973Z,997.05
2018-04-01T00:53:58.167Z,997.04
2018-04-01T00:54:57.820Z,997.05
2018-04-01T00:55:57.778Z,997.00
2018-04-01T00:56:57.723Z,997.03
2018-04-01T00:57:57.677Z,997.02
2018-04-01T00:58:57.631Z,996.99
2018-04-01T00:59:57.896Z,997.04
2018-04-01T01:00:57.536Z,997.01
2018-04-01T01:01:57.492Z,997.07
2018-04-01T01:02:57.454Z,997.07
2018-04-01T01:03:57.613Z,997.10
2018-04-01T01:04:57.355Z,997.10
2018-04-01T01:05:57.313Z,997.08
2018-04-01T01:06:57.573Z,997.08
2018-04-01T01:07:57.223Z,997.06
2018-04-01T01:08:57.181Z,997.07
2018-04-01T01:09:57.188Z,997.06
2018-04-01T01:10:57.081Z,997.03
2018-04-01T01:11:57.035Z,996.99
2018-04-01T01:12:56.990Z,996.99
2018-04-01T01:13:57.253Z,996.95
2018-04-01T01:14:56.885Z,996.94
2018-04-01T01:15:56.836Z,996.93
2018-04-01T01:16:56.788Z,996.90
2018-04-01T01:17:56.780Z,996.93
2018-04-01T01:18:56.695Z,996.98
2018-04-01T01:19:56.647Z,996.95
2018-04-01T01:20:56.951Z,996.92
2018-04-01T01:21:56.556Z,996.86
2018-04-01T01:22:56.516Z,996.85
2018-04-01T01:23:56.469Z,996.82
2018-04-01T01:24:56.422Z,996.76
2018-04-01T01:25:56.377Z,996.76
2018-04-01T01:26:56.487Z,996.74
2018-04-01T01:27:56.580Z,996.72
2018-04-01T01:28:56.232Z,996.73
2018-04-01T01:29:56.185Z,996.77
2018-04-01T01:30:56.136Z,996.78
2018-04-01T01:31:56.089Z,996.74
2018-04-01T01:32:56.094Z,996.78
2018-04-01T01:33:56.007Z,996.82
2018-04-01T01:34:56.248Z,996.78
2018-04-01T01:35:55.899Z,996.85
2018-04-01T01:36:55.858Z,996.81
2018-04-01T01:37:55.811Z,996.84
2018-04-01T01:38:55.752Z,996.87
2018-04-01T01:39:55.702Z,996.79
2018-04-01T01:40:55.662Z,996.84
2018-04-01T01:41:55.909Z,996.84
2018-04-01T01:42:55.561Z,996.87
2018-04-01T01:43:55.711Z,996.82
2018-04-01T01:44:55.467Z,996.80
2018-04-01T01:45:55.417Z,996.84
2018-04-01T01:46:55.381Z,996.79
2018-04-01T01:47:55.634Z,996.82
2018-04-01T01:48:55.283Z,996.86
2018-04-01T01:49:55.287Z,996.85
2018-04-01T01:50:55.190Z,996.86
2018-04-01T01:51:55.141Z,996.88
2018-04-01T01:52:55.098Z,996.89
2018-04-01T01:53:55.346Z,996.91
2018-04-01T01:54:55.013Z,996.91
2018-04-01T01:55:54.944Z,996.93
2018-04-01T01:56:54.896Z,996.95
2018-04-01T01:57:54.851Z,996.93
2018-04-01T01:58:54.803Z,996.89
2018-04-01T01:59:55.056Z,996.89
2018-04-01T02:00:54.709Z,996.94
2018-04-01T02:01:54.659Z,996.95
2018-04-01T02:02:54.617Z,996.95
2018-04-01T02:03:54.565Z,996.94
2018-04-01T02:04:54.517Z,996.93
2018-04-01T02:05:54.822Z,996.92
2018-04-01T02:06:54.429Z,996.99
2018-04-01T02:07:54.374Z,996.97
2018-04-01T02:08:54.329Z,996.96
2018-04-01T02:09:54.284Z,996.92
2018-04-01T02:10:54.242Z,996.90
2018-04-01T02:11:54.596Z,996.92
2018-04-01T02:12:54.148Z,996.88
2018-04-01T02:13:54.101Z,996.89
2018-04-01T02:14:54.060Z,996.86
2018-04-01T02:15:54.006Z,996.89
2018-04-01T02:16:53.959Z,996.83
2018-04-01T02:17:53.969Z,996.84
2018-04-01T02:18:54.155Z,996.78
2018-04-01T02:19:53.806Z,996.77
2018-04-01T02:20:53.763Z,996.76
2018-04-01T02:21:53.713Z,996.82
2018-04-01T02:22:53.674Z,996.81
2018-04-01T02:23:53.628Z,996.85
2018-04-01T02:24:53.569Z,996.89
2018-04-01T02:25:53.822Z,996.88
2018-04-01T02:26:53.491Z,996.90
2018-04-01T02:27:53.437Z,996.98
2018-04-01T02:28:53.440Z,996.93
2018-04-01T02:29:53.342Z,996.92
2018-04-01T02:30:53.296Z,996.93
2018-04-01T02:31:53.248Z,996.92
2018-04-01T02:32:53.502Z,996.91
2018-04-01T02:33:53.154Z,996.95
2018-04-01T02:34:53.263Z,996.93
2018-04-01T02:35:53.061Z,997.00
2018-04-01T02:36:53.022Z,997.01
2018-04-01T02:37:52.965Z,997.00
2018-04-01T02:38:52.917Z,997.06
2018-04-01T02:39:53.172Z,997.08
2018-04-01T02:40:52.831Z,997.11
2018-04-01T02:41:52.775Z,997.07
2018-04-01T02:42:52.717Z,997.12
2018-04-01T02:43:52.667Z,997.09
2018-04-01T02:44:52.622Z,997.06
2018-04-01T02:45:52.675Z,997.06
2018-04-01T02:46:52.829Z,997.05
2018-04-01T02:47:52.478Z,997.07
2018-04-01T02:48:52.431Z,997.07
2018-04-01T02:49:52.386Z,997.03
2018-04-01T02:50:52.347Z,997.03
2018-04-01T02:51:52.510Z,996.98
2018-04-01T02:52:52.553Z,996.99
2018-04-01T02:53:52.207Z,997.00
2018-04-01T02:54:52.157Z,996.98
2018-04-01T02:55:52.108Z,997.00
2018-04-01T02:56:52.063Z,996.99
2018-04-01T02:57:52.015Z,997.02
2018-04-01T02:58:52.262Z,997.00
2018-04-01T02:59:51.919Z,997.00
2018-04-01T03:00:51.861Z,997.04
2018-04-01T03:01:51.813Z,997.04
2018-04-01T03:02:51.969Z,997.06
2018-04-01T03:03:51.721Z,997.03
2018-04-01T03:04:51.972Z,996.99
2018-04-01T03:05:51.625Z,997.02
2018-04-01T03:06:51.577Z,997.03
2018-04-01T03:07:51.535Z,997.02
2018-04-01T03:08:51.533Z,997.03
2018-04-01T03:09:51.442Z,997.05
2018-04-01T03:10:51.687Z,997.02
2018-04-01T03:11:51.339Z,997.02
2018-04-01T03:12:51.292Z,997.03
2018-04-01T03:13:51.248Z,997.02
2018-04-01T03:14:51.408Z,997.03
2018-04-01T03:15:51.168Z,997.05
2018-04-01T03:16:51.411Z,997.06
2018-04-01T03:17:51.066Z,997.00
2018-04-01T03:18:51.016Z,996.98
2018-04-01T03:19:50.970Z,997.01
2018-04-01T03:20:51.177Z,996.96
2018-04-01T03:21:50.876Z,996.94
2018-04-01T03:22:51.119Z,996.96
2018-04-01T03:23:50.779Z,996.97
2018-04-01T03:24:50.723Z,996.92
2018-04-01T03:25:50.676Z,996.92
2018-04-01T03:26:50.643Z,996.97
2018-04-01T03:27:50.580Z,996.99
2018-04-01T03:28:50.538Z,997.04
2018-04-01T03:29:50.785Z,996.99
2018-04-01T03:30:50.453Z,997.06
2018-04-01T03:31:50.453Z,997.08
2018-04-01T03:32:50.353Z,997.12
2018-04-01T03:33:50.304Z,997.08
2018-04-01T03:34:50.257Z,997.13
2018-04-01T03:35:50.210Z,997.18
2018-04-01T03:36:50.465Z,997.16
2018-04-01T03:37:50.216Z,997.19
2018-04-01T03:38:50.066Z,997.25
2018-04-01T03:39:50.022Z,997.21
2018-04-01T03:40:49.974Z,997.26
2018-04-01T03:41:49.939Z,997.26
2018-04-01T03:42:49.878Z,997.27
2018-04-01T03:43:50.129Z,997.26
2018-04-01T03:44:49.781Z,997.25
2018-04-01T03:45:49.745Z,997.24
2018-04-01T03:46:49.677Z,997.22
2018-04-01T03:47:49.630Z,997.24
2018-04-01T03:48:49.680Z,997.23
2018-04-01T03:49:49.536Z,997.26
2018-04-01T03:50:49.786Z,997.25
2018-04-01T03:51:49.440Z,997.27
2018-04-01T03:52:49.390Z,997.22
2018-04-01T03:53:49.342Z,997.25
2018-04-01T03:54:49.356Z,997.28
2018-04-01T03:55:49.264Z,997.27
2018-04-01T03:56:49.209Z,997.27
2018-04-01T03:57:49.462Z,997.26
2018-04-01T03:58:49.116Z,997.28
2018-04-01T03:59:49.066Z,997.29
2018-04-01T04:00:49.072Z,997.30
2018-04-01T04:01:48.978Z,997.38
2018-04-01T04:02:48.915Z,997.39
2018-04-01T04:03:49.165Z,997.34
2018-04-01T04:04:48.826Z,997.42
2018-04-01T04:05:48.772Z,997.41
2018-04-01T04:06:48.722Z,997.44
2018-04-01T04:07:48.675Z,997.44
2018-04-01T04:08:48.678Z,997.45
2018-04-01T04:09:48.880Z,997.43
2018-04-01T04:10:48.534Z,997.42
2018-04-01T04:11:48.793Z,997.45
2018-04-01T04:12:48.438Z,997.45
2018-04-01T04:13:48.390Z,997.46
2018-04-01T04:14:48.342Z,997.45
2018-04-01T04:15:48.600Z,997.44
2018-04-01T04:16:48.247Z,997.47
2018-04-01T04:17:48.300Z,997.44
2018-04-01T04:18:48.163Z,997.45
2018-04-01T04:19:48.113Z,997.45
2018-04-01T04:20:48.069Z,997.44
2018-04-01T04:21:48.320Z,997.47
2018-04-01T04:22:47.976Z,997.46
2018-04-01T04:23:47.922Z,997.46
2018-04-01T04:24:47.876Z,997.44
2018-04-01T04:25:47.830Z,997.52
2018-04-01T04:26:47.782Z,997.51
2018-04-01T04:27:48.036Z,997.55
2018-04-01T04:28:47.686Z,997.64
2018-04-01T04:29:47.641Z,997.64
2018-04-01T04:30:47.592Z,997.59
2018-04-01T04:31:47.545Z,997.63
2018-04-01T04:32:47.499Z,997.70
2018-04-01T04:33:47.446Z,997.67
2018-04-01T04:34:47.691Z,997.67
2018-04-01T04:35:47.397Z,997.67
2018-04-01T04:36:47.301Z,997.70
2018-04-01T04:37:47.249Z,997.69
2018-04-01T04:38:47.250Z,997.72
2018-04-01T04:39:47.153Z,997.70
2018-04-01T04:40:47.103Z,997.71
2018-04-01T04:41:47.357Z,997.67
2018-04-01T04:42:47.014Z,997.70
2018-04-01T04:43:46.965Z,997.69
2018-04-01T04:44:46.963Z,997.68
2018-04-01T04:45:46.870Z,997.67
2018-04-01T04:46:46.821Z,997.66
2018-04-01T04:47:46.770Z,997.65
2018-04-01T04:48:47.026Z,997.71
2018-04-01T04:49:46.676Z,997.78
2018-04-01T04:50:46.988Z,997.76
2018-04-01T04:51:46.589Z,997.80
2018-04-01T04:52:46.542Z,997.79
2018-04-01T04:53:46.500Z,997.82
2018-04-01T04:54:46.447Z,997.80
2018-04-01T04:55:46.697Z,997.85
2018-04-01T04:56:46.351Z,997.83
2018-04-01T04:57:46.303Z,997.84
2018-04-01T04:58:46.246Z,997.85
2018-04-01T04:59:46.196Z,997.86
2018-04-01T05:00:46.150Z,997.84
2018-04-01T05:01:46.152Z,997.85
2018-04-01T05:02:46.353Z,997.87
2018-04-01T05:03:46.011Z,997.85
2018-04-01T05:04:45.959Z,997.88
2018-04-01T05:05:45.910Z,997.83
2018-04-01T05:06:45.875Z,997.86
2018-04-01T05:07:45.874Z,997.84
2018-04-01T05:08:45.779Z,997.88
2018-04-01T05:09:46.028Z,997.92
2018-04-01T05:10:45.686Z,997.88
2018-04-01T05:11:45.634Z,997.90
2018-04-01T05:12:45.591Z,997.97
2018-04-01T05:13:45.535Z,997.94
2018-04-01T05:14:45.489Z,998.00
2018-04-01T05:15:45.740Z,998.01
2018-04-01T05:16:45.393Z,998.02
2018-04-01T05:17:45.346Z,998.01
2018-04-01T05:18:45.348Z,998.04
2018-04-01T05:19:45.255Z,998.10
2018-04-01T05:20:45.209Z,998.00
2018-04-01T05:21:45.453Z,998.01
2018-04-01T05:22:45.097Z,998.03
2018-04-01T05:23:45.047Z,998.00
2018-04-01T05:24:45.305Z,998.04
2018-04-01T05:25:44.950Z,998.02
2018-04-01T05:26:44.912Z,998.05
2018-04-01T05:27:45.157Z,998.08
2018-04-01T05:28:44.814Z,998.08
2018-04-01T05:29:44.759Z,998.06
2018-04-01T05:30:44.724Z,998.11
2018-04-01T05:31:44.683Z,998.08
2018-04-01T05:32:44.626Z,998.12
2018-04-01T05:33:44.878Z,998.14
2018-04-01T05:34:44.530Z,998.15
2018-04-01T05:35:44.684Z,998.23
2018-04-01T05:36:44.436Z,998.21
2018-04-01T05:37:44.387Z,998.25
2018-04-01T05:38:44.329Z,998.25
2018-04-01T05:39:44.585Z,998.29
2018-04-01T05:40:44.235Z,998.30
2018-04-01T05:41:44.236Z,998.27
2018-04-01T05:42:44.141Z,998.28
2018-04-01T05:43:44.090Z,998.28
2018-04-01T05:44:44.045Z,998.31
2018-04-01T05:45:43.997Z,998.34
2018-04-01T05:46:44.247Z,998.33
2018-04-01T05:47:44.000Z,998.34
2018-04-01T05:48:43.863Z,998.32
2018-04-01T05:49:43.805Z,998.36
2018-04-01T05:50:43.757Z,998.38
2018-04-01T05:51:43.716Z,998.38
2018-04-01T05:52:43.663Z,998.39
2018-04-01T05:53:43.916Z,998.41
2018-04-01T05:54:43.577Z,998.48
2018-04-01T05:55:43.530Z,998.52
2018-04-01T05:56:43.478Z,998.53
2018-04-01T05:57:43.435Z,998.58
2018-04-01T05:58:43.448Z,998.66
2018-04-01T05:59:43.336Z,998.70
2018-04-01T06:00:43.594Z,998.71
2018-04-01T06:01:43.272Z,998.71
2018-04-01T06:02:43.188Z,998.72
2018-04-01T06:03:43.136Z,998.71
2018-04-01T06:04:43.383Z,998.69
2018-04-01T06:05:43.040Z,998.74
2018-04-01T06:06:42.993Z,998.74
2018-04-01T06:07:43.251Z,998.75
2018-04-01T06:08:42.899Z,998.75
2018-04-01T06:09:42.859Z,998.79
2018-04-01T06:10:42.828Z,998.79
2018-04-01T06:11:42.766Z,998.80
2018-04-01T06:12:43.105Z,998.81
2018-04-01T06:13:42.670Z,998.82
2018-04-01T06:14:42.929Z,998.87
2018-04-01T06:15:42.582Z,998.80
2018-04-01T06:16:42.527Z,998.87
2018-04-01T06:17:42.480Z,998.86
2018-04-01T06:18:42.435Z,998.92
2018-04-01T06:19:42.384Z,998.94
2018-04-01T06:20:42.684Z,998.93
2018-04-01T06:21:42.287Z,998.94
2018-04-01T06:22:42.244Z,998.94
2018-04-01T06:23:42.192Z,998.95
2018-04-01T06:24:42.153Z,998.95
2018-04-01T06:25:42.097Z,998.94
2018-04-01T06:26:42.390Z,998.96
2018-04-01T06:27:41.990Z,999.00
2018-04-01T06:28:41.942Z,998.97
2018-04-01T06:29:41.900Z,998.91
2018-04-01T06:30:41.848Z,998.99
2018-04-01T06:31:41.808Z,998.96
2018-04-01T06:32:42.052Z,999.00
2018-04-01T06:33:41.704Z,999.00
2018-04-01T06:34:41.670Z,999.04
2018-04-01T06:35:41.620Z,999.04
2018-04-01T06:36:41.573Z,999.00
2018-04-01T06:37:41.575Z,999.00
2018-04-01T06:38:41.778Z,999.04
2018-04-01T06:39:41.429Z,999.11
2018-04-01T06:40:41.384Z,999.15
2018-04-01T06:41:41.340Z,999.11
2018-04-01T06:42:41.278Z,999.14
2018-04-01T06:43:41.279Z,999.16
2018-04-01T06:44:41.489Z,999.18
2018-04-01T06:45:41.138Z,999.19
2018-04-01T06:46:41.089Z,999.21
2018-04-01T06:47:41.052Z,999.25
2018-04-01T06:48:40.995Z,999.25
2018-04-01T06:49:40.947Z,999.29
2018-04-01T06:50:41.198Z,999.25
2018-04-01T06:51:40.851Z,999.28
2018-04-01T06:52:40.811Z,999.26
2018-04-01T06:53:40.755Z,999.32
2018-04-01T06:54:40.764Z,999.31
2018-04-01T06:55:40.664Z,999.29
2018-04-01T06:56:40.616Z,999.30
2018-04-01T06:57:40.873Z,999.36
2018-04-01T06:58:40.531Z,999.37
2018-04-01T06:59:40.484Z,999.37
2018-04-01T07:00:40.485Z,999.36
2018-04-01T07:01:40.390Z,999.38
2018-04-01T07:02:40.342Z,999.40
2018-04-01T07:03:40.298Z,999.44
2018-04-01T07:04:40.548Z,999.47
2018-04-01T07:05:40.204Z,999.44
2018-04-01T07:06:40.195Z,999.49
2018-04-01T07:07:40.097Z,999.51
2018-04-01T07:08:40.050Z,999.50
2018-04-01T07:09:40.003Z,999.56
2018-04-01T07:10:39.958Z,999.52
2018-04-01T07:11:40.218Z,999.58
2018-04-01T07:12:39.864Z,999.59
2018-04-01T07:13:39.825Z,999.63
2018-04-01T07:14:39.782Z,999.65
2018-04-01T07:15:39.881Z,999.68
2018-04-01T07:16:39.684Z,999.69
2018-04-01T07:17:39.640Z,999.66
2018-04-01T07:18:39.895Z,999.69
2018-04-01T07:19:39.544Z,999.72
2018-04-01T07:20:39.546Z,999.74
2018-04-01T07:21:39.650Z,999.75
2018-04-01T07:22:39.404Z,999.75
2018-04-01T07:23:39.447Z,999.73
2018-04-01T07:24:39.309Z,999.70
2018-04-01T07:25:39.612Z,999.67
2018-04-01T07:26:39.216Z,999.70
2018-04-01T07:27:39.168Z,999.64
2018-04-01T07:28:39.120Z,999.71
2018-04-01T07:29:39.073Z,999.70
2018-04-01T07:30:39.067Z,999.74
2018-04-01T07:31:39.369Z,999.77
2018-04-01T07:32:38.922Z,999.79
2018-04-01T07:33:38.876Z,999.80
2018-04-01T07:34:38.831Z,999.81
2018-04-01T07:35:38.781Z,999.80
2018-04-01T07:36:38.785Z,999.84
2018-04-01T07:37:38.989Z,999.86
2018-04-01T07:38:38.651Z,999.81
2018-04-01T07:39:38.603Z,999.86
2018-04-01T07:40:38.564Z,999.91
2018-04-01T07:41:38.509Z,999.88
2018-04-01T07:42:38.467Z,999.93
2018-04-01T07:43:38.717Z,999.90
2018-04-01T07:44:38.371Z,999.94
2018-04-01T07:45:38.330Z,999.96
2018-04-01T07:46:38.266Z,999.97
2018-04-01T07:47:38.274Z,999.93
2018-04-01T07:48:38.230Z,999.96
2018-04-01T07:49:38.432Z,999.96
2018-04-01T07:50:38.136Z,1000.00
2018-04-01T07:51:38.046Z,999.98
2018-04-01T07:52:37.991Z,1000.03
2018-04-01T07:53:37.944Z,1000.03
2018-04-01T07:54:37.896Z,1000.03
2018-04-01T07:55:38.155Z,1000.06
2018-04-01T07:56:38.009Z,1000.05
2018-04-01T07:57:37.801Z,1000.05
2018-04-01T07:58:37.910Z,1000.08
2018-04-01T07:59:37.664Z,1000.07
2018-04-01T08:00:37.768Z,1000.03
2018-04-01T08:01:37.877Z,1000.08
2018-04-01T08:02:37.541Z,1000.06
2018-04-01T08:03:37.591Z,1000.09
2018-04-01T08:04:37.442Z,1000.07
2018-04-01T08:05:37.449Z,1000.13
2018-04-01T08:06:37.348Z,1000.14
2018-04-01T08:07:37.312Z,1000.17
2018-04-01T08:08:37.555Z,1000.16
2018-04-01T08:09:37.211Z,1000.20
2018-04-01T08:10:37.204Z,1000.24
2018-04-01T08:11:37.107Z,1000.26
2018-04-01T08:12:37.061Z,1000.24
2018-04-01T08:13:37.215Z,1000.24
2018-04-01T08:14:36.970Z,1000.23
2018-04-01T08:15:37.232Z,1000.25
2018-04-01T08:16:36.928Z,1000.24
2018-04-01T08:17:36.836Z,1000.32
2018-04-01T08:18:36.805Z,1000.33
2018-04-01T08:19:36.753Z,1000.33
2018-04-01T08:20:36.854Z,1000.34
2018-04-01T08:21:36.659Z,1000.38
2018-04-01T08:22:36.974Z,1000.39
2018-04-01T08:23:36.618Z,1000.41
2018-04-01T08:24:36.521Z,1000.44
2018-04-01T08:25:36.533Z,1000.49
2018-04-01T08:26:36.436Z,1000.52
2018-04-01T08:27:36.436Z,1000.53
2018-04-01T08:28:36.403Z,1000.55
2018-04-01T08:29:36.596Z,1000.53
2018-04-01T08:30:36.309Z,1000.52
2018-04-01T08:31:36.205Z,1000.55
2018-04-01T08:32:36.206Z,1000.62
2018-04-01T08:33:36.167Z,1000.63
2018-04-01T08:34:36.055Z,1000.59
2018-04-01T08:35:36.210Z,1000.58
2018-04-01T08:36:36.265Z,1000.62
2018-04-01T08:37:35.976Z,1000.63
2018-04-01T08:38:35.926Z,1000.63
2018-04-01T08:39:35.832Z,1000.66
2018-04-01T08:40:35.831Z,1000.63
2018-04-01T08:41:35.738Z,1000.67
2018-04-01T08:42:36.052Z,1000.69
2018-04-01T08:43:35.808Z,1000.68
2018-04-01T08:44:35.613Z,1000.69
2018-04-01T08:45:35.762Z,1000.68
2018-04-01T08:46:35.518Z,1000.73
2018-04-01T08:47:35.526Z,1000.73
2018-04-01T08:48:35.776Z,1000.75
2018-04-01T08:49:35.382Z,1000.72
2018-04-01T08:50:35.476Z,1000.72
2018-04-01T08:51:35.284Z,1000.77
2018-04-01T08:52:35.389Z,1000.79
2018-04-01T08:53:35.243Z,1000.82
2018-04-01T08:54:35.445Z,1000.81
2018-04-01T08:55:35.246Z,1000.88
2018-04-01T08:56:35.057Z,1000.82
2018-04-01T08:57:35.058Z,1000.82
2018-04-01T08:58:35.013Z,1000.83
2018-04-01T08:59:34.959Z,1000.87
2018-04-01T09:00:35.227Z,1000.85
2018-04-01T09:01:34.830Z,1000.88
2018-04-01T09:02:34.934Z,1000.85
2018-04-01T09:03:35.043Z,1000.90
2018-04-01T09:04:34.704Z,1000.89
2018-04-01T09:05:34.705Z,1000.90
2018-04-01T09:06:34.915Z,1000.87
2018-04-01T09:07:34.817Z,1000.90
2018-04-01T09:08:34.722Z,1000.92
2018-04-01T09:09:34.533Z,1000.93
2018-04-01T09:10:34.590Z,1000.92
2018-04-01T09:11:34.400Z,1000.94
2018-04-01T09:12:34.693Z,1000.98
2018-04-01T09:13:34.453Z,1000.96
2018-04-01T09:14:34.244Z,1000.96
2018-04-01T09:15:34.264Z,1001.01
2018-04-01T09:16:34.155Z,1001.00
2018-04-01T09:17:34.160Z,1000.99
2018-04-01T09:18:34.123Z,1000.97
2018-04-01T09:19:34.323Z,1001.00
2018-04-01T09:20:34.030Z,1001.02
2018-04-01T09:21:33.933Z,1001.02
2018-04-01T09:22:33.947Z,1001.01
2018-04-01T09:23:34.006Z,1000.98
2018-04-01T09:24:33.962Z,1001.01
2018-04-01T09:25:33.820Z,1001.05
2018-04-01T09:26:34.020Z,1001.05
2018-04-01T09:27:33.782Z,1001.03
2018-04-01T09:28:33.784Z,1001.06
2018-04-01T09:29:33.587Z,1001.08
2018-04-01T09:30:33.649Z,1001.06
2018-04-01T09:31:33.520Z,1001.04
2018-04-01T09:32:33.652Z,1001.08
2018-04-01T09:33:33.908Z,1001.04
2018-04-01T09:34:33.366Z,1001.08
2018-04-01T09:35:33.622Z,1001.07
2018-04-01T09:36:33.279Z,1001.06
2018-04-01T09:37:33.381Z,1001.16
2018-04-01T09:38:33.235Z,1001.14
2018-04-01T09:39:33.135Z,1001.15
2018-04-01T09:40:33.443Z,1001.14
2018-04-01T09:41:33.051Z,1001.19
2018-04-01T09:42:33.054Z,1001.18
2018-04-01T09:43:33.010Z,1001.20
2018-04-01T09:44:32.917Z,1001.23
2018-04-01T09:45:32.921Z,1001.20
2018-04-01T09:46:32.839Z,1001.23
2018-04-01T09:47:33.094Z,1001.28
2018-04-01T09:48:32.801Z,1001.27
2018-04-01T09:49:32.710Z,1001.28
2018-04-01T09:50:32.868Z,1001.30
2018-04-01T09:51:32.621Z,1001.25
2018-04-01T09:52:32.639Z,1001.30
2018-04-01T09:53:32.834Z,1001.31
2018-04-01T09:54:32.485Z,1001.27
2018-04-01T09:55:32.586Z,1001.28
2018-04-01T09:56:32.396Z,1001.22
2018-04-01T09:57:32.506Z,1001.24
2018-04-01T09:58:32.357Z,1001.24
2018-04-01T09:59:32.641Z,1001.24
2018-04-01T10:00:32.271Z,1001.25
2018-04-01T10:01:32.182Z,1001.30
2018-04-01T10:02:32.139Z,1001.24
2018-04-01T10:03:32.393Z,1001.34
2018-04-01T10:04:32.101Z,1001.32
2018-04-01T10:05:32.309Z,1001.32
2018-04-01T10:06:31.969Z,1001.40
2018-04-01T10:07:31.973Z,1001.38
2018-04-01T10:08:32.031Z,1001.35
2018-04-01T10:09:31.889Z,1001.37
2018-04-01T10:10:31.860Z,1001.43
2018-04-01T10:11:32.066Z,1001.40
2018-04-01T10:12:31.774Z,1001.44
2018-04-01T10:13:31.736Z,1001.41
2018-04-01T10:14:31.640Z,1001.45
2018-04-01T10:15:31.646Z,1001.47
2018-04-01T10:16:31.557Z,1001.45
2018-04-01T10:17:31.865Z,1001.43
2018-04-01T10:18:31.566Z,1001.42
2018-04-01T10:19:31.417Z,1001.43
2018-04-01T10:20:31.477Z,1001.40
2018-04-01T10:21:31.331Z,1001.46
2018-04-01T10:22:31.340Z,1001.44
2018-04-01T10:23:31.597Z,1001.53
2018-04-01T10:24:31.206Z,1001.53
2018-04-01T10:25:31.214Z,1001.56
2018-04-01T10:26:31.133Z,1001.54
2018-04-01T10:27:31.291Z,1001.63
2018-04-01T10:28:31.249Z,1001.65
2018-04-01T10:29:31.005Z,1001.65
2018-04-01T10:30:31.315Z,1001.60
2018-04-01T10:31:30.921Z,1001.66
2018-04-01T10:32:30.879Z,1001.72
2018-04-01T10:33:30.888Z,1001.68
2018-04-01T10:34:30.804Z,1001.70
2018-04-01T10:35:30.959Z,1001.68
2018-04-01T10:36:30.714Z,1001.67
2018-04-01T10:37:31.074Z,1001.70
2018-04-01T10:38:30.696Z,1001.73
2018-04-01T10:39:30.589Z,1001.75
2018-04-01T10:40:30.601Z,1001.70
2018-04-01T10:41:30.510Z,1001.77
2018-04-01T10:42:30.538Z,1001.78
2018-04-01T10:43:30.470Z,1001.77
2018-04-01T10:44:30.684Z,1001.80
2018-04-01T10:45:30.382Z,1001.77
2018-04-01T10:46:30.339Z,1001.75
2018-04-01T10:47:30.298Z,1001.77
2018-04-01T10:48:30.258Z,1001.77
2018-04-01T10:49:30.173Z,1001.77
2018-04-01T10:50:30.190Z,1001.78
2018-04-01T10:51:30.395Z,1001.76
2018-04-01T10:52:30.108Z,1001.79
2018-04-01T10:53:30.089Z,1001.82
2018-04-01T10:54:29.969Z,1001.83
2018-04-01T10:55:30.076Z,1001.87
2018-04-01T10:56:29.936Z,1001.90
2018-04-01T10:57:29.888Z,1001.87
2018-04-01T10:58:30.093Z,1001.95
2018-04-01T10:59:29.745Z,1001.98
2018-04-01T11:00:29.905Z,1002.02
2018-04-01T11:01:29.811Z,1002.04
2018-04-01T11:02:29.672Z,1001.99
2018-04-01T11:03:29.729Z,1001.96
2018-04-01T11:04:29.840Z,1001.99
2018-04-01T11:05:29.549Z,1002.02
2018-04-01T11:06:29.519Z,1002.03
2018-04-01T11:07:29.477Z,1002.04
2018-04-01T11:08:29.435Z,1002.14
2018-04-01T11:09:29.347Z,1002.12
2018-04-01T11:11:29.698Z,1002.04
2018-04-01T11:12:29.227Z,1002.05
2018-04-01T11:13:29.246Z,1002.11
2018-04-01T11:14:29.155Z,1002.12
2018-04-01T11:15:29.273Z,1002.14
2018-04-01T11:16:29.136Z,1002.12
2018-04-01T11:17:29.346Z,1002.17
2018-04-01T11:18:29.063Z,1002.13
2018-04-01T11:19:28.968Z,1002.17
2018-04-01T11:20:28.984Z,1002.17
2018-04-01T11:21:28.944Z,1002.20
2018-04-01T11:22:28.852Z,1002.15
2018-04-01T11:23:29.306Z,1002.16
2018-04-01T11:24:28.765Z,1002.13
2018-04-01T11:26:28.847Z,1002.13
2018-04-01T11:27:28.655Z,1002.12
2018-04-01T11:28:28.762Z,1002.13
2018-04-01T11:29:28.872Z,1002.14
2018-04-01T11:30:28.578Z,1002.14
2018-04-01T11:31:28.541Z,1002.16
2018-04-01T11:32:28.465Z,1002.17
2018-04-01T11:33:28.471Z,1002.18
2018-04-01T11:34:28.380Z,1002.24
2018-04-01T11:35:28.789Z,1002.23
2018-04-01T11:36:28.348Z,1002.27
2018-04-01T11:37:28.259Z,1002.28
2018-04-01T11:38:28.417Z,1002.30
2018-04-01T11:39:28.180Z,1002.32
2018-04-01T11:40:28.286Z,1002.40
2018-04-01T11:41:28.297Z,1002.45
2018-04-01T11:42:28.358Z,1002.54
2018-04-01T11:43:28.067Z,1002.52
2018-04-01T11:44:27.977Z,1002.53
2018-04-01T11:45:27.999Z,1002.52
2018-04-01T11:46:28.106Z,1002.56
2018-04-01T11:47:27.861Z,1002.58
2018-04-01T11:48:27.875Z,1002.55
2018-04-01T11:49:28.081Z,1002.60
2018-04-01T11:50:27.884Z,1002.61
2018-04-01T11:51:27.747Z,1002.61
2018-04-01T11:52:27.812Z,1002.58
2018-04-01T11:53:27.674Z,1002.60
2018-04-01T11:54:27.584Z,1002.60
2018-04-01T11:55:27.693Z,1002.58
2018-04-01T11:56:27.814Z,1002.59
2018-04-01T11:57:27.529Z,1002.58
2018-04-01T11:58:27.490Z,1002.57
2018-04-01T11:59:27.404Z,1002.58
2018-04-01T12:00:27.560Z,1002.53
2018-04-01T12:01:27.520Z,1002.58
2018-04-01T12:02:27.336Z,1002.65
2018-04-01T12:03:27.597Z,1002.65
2018-04-01T12:04:27.196Z,1002.69
2018-04-01T12:05:27.216Z,1002.66
2018-04-01T12:06:27.213Z,1002.64
2018-04-01T12:07:27.125Z,1002.68
2018-04-01T12:08:27.087Z,1002.69
2018-04-01T12:09:27.001Z,1002.68
2018-04-01T12:10:27.319Z,1002.67
2018-04-01T12:11:27.125Z,1002.65
2018-04-01T12:12:26.930Z,1002.63
2018-04-01T12:13:26.890Z,1002.63
2018-04-01T12:14:26.805Z,1002.60
2018-04-01T12:15:26.813Z,1002.67
2018-04-01T12:16:26.875Z,1002.65
2018-04-01T12:17:27.036Z,1002.63
2018-04-01T12:18:26.761Z,1002.61
2018-04-01T12:19:26.608Z,1002.64
2018-04-01T12:20:26.828Z,1002.65
2018-04-01T12:21:26.592Z,1002.66